createdAt,value
2022-09-14T00:01:27.544Z,15.90
2022-09-14T00:04:17.628Z,15.90
2022-09-14T00:06:45.541Z,15.80
2022-09-14T00:09:17.659Z,15.70
2022-09-14T00:11:48.645Z,15.70
2022-09-14T00:14:16.123Z,15.60
2022-09-14T00:16:43.512Z,15.50
2022-09-14T00:19:20.808Z,15.50
2022-09-14T00:21:51.432Z,15.50
2022-09-14T00:24:18.342Z,15.60
2022-09-14T00:26:45.206Z,15.60
2022-09-14T00:29:12.214Z,15.60
2022-09-14T00:31:39.575Z,15.70
2022-09-14T00:34:08.283Z,15.80
2022-09-14T00:36:40.267Z,15.70
2022-09-14T00:39:08.627Z,15.70
2022-09-14T00:41:37.748Z,15.80
2022-09-14T00:44:05.970Z,15.70
2022-09-14T00:46:38.478Z,15.70
2022-09-14T00:49:12.854Z,15.80
2022-09-14T00:51:45.825Z,15.70
2022-09-14T00:54:12.564Z,15.80
2022-09-14T00:56:39.266Z,15.70
2022-09-14T00:59:13.056Z,15.60
2022-09-14T01:01:39.789Z,15.60
2022-09-14T01:04:06.529Z,15.60
2022-09-14T01:06:37.299Z,15.60
2022-09-14T01:09:22.258Z,15.60
2022-09-14T01:12:11.070Z,15.60
2022-09-14T01:14:46.172Z,15.50
2022-09-14T01:17:17.299Z,15.30
2022-09-14T01:20:07.615Z,15.20
2022-09-14T01:22:44.262Z,15.10
2022-09-14T01:25:51.690Z,15.20
2022-09-14T01:28:53.570Z,15.30
2022-09-14T01:31:38.377Z,15.20
2022-09-14T01:34:13.905Z,15.20
2022-09-14T01:36:44.367Z,15.30
2022-09-14T01:39:12.138Z,15.50
2022-09-14T01:41:42.039Z,15.50
2022-09-14T01:44:16.158Z,15.30
2022-09-14T01:46:51.495Z,15.30
2022-09-14T01:49:23.123Z,15.40
2022-09-14T01:51:58.958Z,15.40
2022-09-14T01:54:41.874Z,15.30
2022-09-14T01:57:35.462Z,15.20
2022-09-14T02:00:12.298Z,15.20
2022-09-14T02:02:44.621Z,15.20
2022-09-14T02:05:15.106Z,15.20
2022-09-14T02:07:41.993Z,15.10
2022-09-14T02:10:12.400Z,15.20
2022-09-14T02:12:40.126Z,15.30
2022-09-14T02:15:11.021Z,15.30
2022-09-14T02:17:37.913Z,15.30
2022-09-14T02:20:07.660Z,15.30
2022-09-14T02:22:34.862Z,15.30
2022-09-14T02:25:02.876Z,15.40
2022-09-14T02:27:29.498Z,15.50
2022-09-14T02:29:56.148Z,15.40
2022-09-14T02:32:51.032Z,15.30
2022-09-14T02:35:36.072Z,15.40
2022-09-14T02:38:05.725Z,15.40
2022-09-14T02:40:43.163Z,15.50
2022-09-14T02:43:21.450Z,15.50
2022-09-14T02:45:59.634Z,15.40
2022-09-14T02:48:51.021Z,15.40
2022-09-14T02:51:52.563Z,15.50
2022-09-14T02:54:32.712Z,15.60
2022-09-14T02:57:03.755Z,15.50
2022-09-14T02:59:30.699Z,15.40
2022-09-14T03:02:00.362Z,15.40
2022-09-14T03:04:27.542Z,15.30
2022-09-14T03:06:54.230Z,15.20
2022-09-14T03:09:20.881Z,15.30
2022-09-14T03:11:47.515Z,15.30
2022-09-14T03:14:14.182Z,15.40
2022-09-14T03:16:41.000Z,15.40
2022-09-14T03:19:07.692Z,15.40
2022-09-14T03:21:34.345Z,15.40
2022-09-14T03:24:00.983Z,15.50
2022-09-14T03:26:29.551Z,15.30
2022-09-14T03:28:58.521Z,15.20
2022-09-14T03:31:26.681Z,15.20
2022-09-14T03:33:57.777Z,15.30
2022-09-14T03:36:26.143Z,15.40
2022-09-14T03:38:55.984Z,15.40
2022-09-14T03:41:23.443Z,15.40
2022-09-14T03:43:50.783Z,15.30
2022-09-14T03:46:21.275Z,15.20
2022-09-14T03:48:48.502Z,15.20
2022-09-14T03:51:15.977Z,15.10
2022-09-14T03:53:44.709Z,15.10
2022-09-14T03:56:14.985Z,15.10
2022-09-14T03:58:42.053Z,15.10
2022-09-14T04:01:14.524Z,15.00
2022-09-14T04:03:42.114Z,15.00
2022-09-14T04:06:09.858Z,15.00
2022-09-14T04:08:38.982Z,15.00
2022-09-14T04:11:21.214Z,14.80
2022-09-14T04:13:48.310Z,14.80
2022-09-14T04:16:16.872Z,14.80
2022-09-14T04:18:44.161Z,14.80
2022-09-14T04:21:15.354Z,14.90
2022-09-14T04:24:03.446Z,14.90
2022-09-14T04:26:30.111Z,14.90
2022-09-14T04:28:57.678Z,15.00
2022-09-14T04:31:25.319Z,15.00
2022-09-14T04:33:56.058Z,15.10
2022-09-14T04:36:25.779Z,15.00
2022-09-14T04:38:54.156Z,15.10
2022-09-14T04:41:21.845Z,15.10
2022-09-14T04:43:50.440Z,15.20
2022-09-14T04:46:19.978Z,15.20
2022-09-14T04:48:47.129Z,15.30
2022-09-14T04:51:16.958Z,15.50
2022-09-14T04:53:45.452Z,15.50
2022-09-14T04:56:13.403Z,15.20
2022-09-14T04:58:43.315Z,15.20
2022-09-14T05:01:15.120Z,15.30
2022-09-14T05:03:42.646Z,15.40
2022-09-14T05:06:15.179Z,15.50
2022-09-14T05:08:42.657Z,15.50
2022-09-14T05:11:14.093Z,15.40
2022-09-14T05:13:40.739Z,15.40
2022-09-14T05:16:15.703Z,15.40
2022-09-14T05:18:43.945Z,15.30
2022-09-14T05:21:14.422Z,15.30
2022-09-14T05:23:41.674Z,15.20
2022-09-14T05:26:08.902Z,15.30
2022-09-14T05:28:36.186Z,15.30
2022-09-14T05:31:07.395Z,15.40
2022-09-14T05:33:35.172Z,15.40
2022-09-14T05:36:03.800Z,15.40
2022-09-14T05:38:31.646Z,15.50
2022-09-14T05:40:58.779Z,15.40
2022-09-14T05:43:25.984Z,15.30
2022-09-14T05:45:52.724Z,15.20
2022-09-14T05:48:19.422Z,15.20
2022-09-14T05:50:46.261Z,15.10
2022-09-14T05:53:13.060Z,14.90
2022-09-14T05:55:39.677Z,14.90
2022-09-14T05:58:06.269Z,14.90
2022-09-14T06:00:33.107Z,14.70
2022-09-14T06:02:59.743Z,14.60
2022-09-14T06:05:26.417Z,14.70
2022-09-14T06:07:54.089Z,14.70
2022-09-14T06:10:21.770Z,14.70
2022-09-14T06:12:53.479Z,14.70
2022-09-14T06:15:24.495Z,14.80
2022-09-14T06:17:51.203Z,14.80
2022-09-14T06:20:18.760Z,14.70
2022-09-14T06:22:45.383Z,14.70
2022-09-14T06:25:12.307Z,14.70
2022-09-14T06:27:38.974Z,14.70
2022-09-14T06:30:06.408Z,14.60
2022-09-14T06:32:33.153Z,14.60
2022-09-14T06:34:59.873Z,14.80
2022-09-14T06:37:26.475Z,15.00
2022-09-14T06:39:53.215Z,14.90
2022-09-14T06:42:19.877Z,14.80
2022-09-14T06:44:51.605Z,14.80
2022-09-14T06:47:18.319Z,14.80
2022-09-14T06:49:44.905Z,14.70
2022-09-14T06:52:11.572Z,14.60
2022-09-14T06:54:38.220Z,14.60
2022-09-14T06:57:06.426Z,14.60
2022-09-14T06:59:33.082Z,14.50
2022-09-14T07:01:59.828Z,14.50
2022-09-14T07:04:26.494Z,14.40
2022-09-14T07:06:53.139Z,14.50
2022-09-14T07:09:20.352Z,14.50
2022-09-14T07:11:47.484Z,14.50
2022-09-14T07:14:14.414Z,14.40
2022-09-14T07:16:41.227Z,14.50
2022-09-14T07:19:11.534Z,14.60
2022-09-14T07:21:38.650Z,14.70
2022-09-14T07:24:05.715Z,14.50
2022-09-14T07:26:39.438Z,14.50
2022-09-14T07:29:08.200Z,14.50
2022-09-14T07:31:55.241Z,14.60
2022-09-14T07:34:22.609Z,14.70
2022-09-14T07:36:49.274Z,14.60
2022-09-14T07:39:17.642Z,14.60
2022-09-14T07:41:45.044Z,14.70
2022-09-14T07:44:15.257Z,14.80
2022-09-14T07:46:44.140Z,15.00
2022-09-14T07:49:12.159Z,15.00
2022-09-14T07:51:39.879Z,15.00
2022-09-14T07:54:08.012Z,15.10
2022-09-14T07:56:35.202Z,15.00
2022-09-14T07:59:30.956Z,14.80
2022-09-14T08:01:50.549Z,14.70
2022-09-14T08:04:17.511Z,14.70
2022-09-14T08:06:44.146Z,14.80
2022-09-14T08:09:10.828Z,14.80
2022-09-14T08:11:38.295Z,14.80
2022-09-14T08:14:11.282Z,14.90
2022-09-14T08:16:38.924Z,14.80
2022-09-14T08:19:10.623Z,14.90
2022-09-14T08:21:37.642Z,15.00
2022-09-14T08:24:04.460Z,14.90
2022-09-14T08:26:31.758Z,14.90
2022-09-14T08:29:02.853Z,15.00
2022-09-14T08:31:29.615Z,15.10
2022-09-14T08:33:59.063Z,15.00
2022-09-14T08:36:29.060Z,15.20
2022-09-14T08:38:55.813Z,15.20
2022-09-14T08:41:50.895Z,15.00
2022-09-14T08:44:41.120Z,15.10
2022-09-14T08:47:25.824Z,15.10
2022-09-14T08:49:57.043Z,15.40
2022-09-14T08:52:47.126Z,15.40
2022-09-14T08:55:40.280Z,15.40
2022-09-14T08:58:10.169Z,15.50
2022-09-14T09:00:41.855Z,15.50
2022-09-14T09:03:30.930Z,15.20
2022-09-14T09:06:02.906Z,15.20
2022-09-14T09:08:38.886Z,15.30
2022-09-14T09:11:13.031Z,15.30
2022-09-14T09:13:40.036Z,15.20
2022-09-14T09:16:09.948Z,15.30
2022-09-14T09:18:42.731Z,15.20
2022-09-14T09:21:17.239Z,15.40
2022-09-14T09:23:44.673Z,15.40
2022-09-14T09:26:25.638Z,15.40
2022-09-14T09:28:54.246Z,15.30
2022-09-14T09:31:44.198Z,15.20
2022-09-14T09:34:30.063Z,15.20
2022-09-14T09:37:15.828Z,15.30
2022-09-14T09:39:43.766Z,15.50
2022-09-14T09:42:28.137Z,15.60
2022-09-14T09:45:01.800Z,15.20
2022-09-14T09:47:39.337Z,14.90
2022-09-14T09:50:18.528Z,14.90
2022-09-14T09:53:03.195Z,15.00
2022-09-14T09:55:38.225Z,15.00
2022-09-14T09:58:35.871Z,15.00
2022-09-14T10:01:17.536Z,15.00
2022-09-14T10:03:51.303Z,15.10
2022-09-14T10:06:18.090Z,15.10
2022-09-14T10:08:47.326Z,15.10
2022-09-14T10:11:30.900Z,15.20
2022-09-14T10:13:58.208Z,15.10
2022-09-14T10:16:29.846Z,15.20
2022-09-14T10:18:59.383Z,15.10
2022-09-14T10:21:26.227Z,15.10
2022-09-14T10:24:05.675Z,15.00
2022-09-14T10:26:35.359Z,15.00
2022-09-14T10:29:36.212Z,15.00
2022-09-14T10:32:26.052Z,15.00
2022-09-14T10:34:53.081Z,15.10
2022-09-14T10:37:57.975Z,15.20
2022-09-14T10:40:44.053Z,15.10
2022-09-14T10:43:51.227Z,15.10
2022-09-14T10:46:21.761Z,15.20
2022-09-14T10:48:48.415Z,14.90
2022-09-14T10:51:35.979Z,14.80
2022-09-14T10:54:16.824Z,14.70
2022-09-14T10:56:54.541Z,14.60
2022-09-14T10:59:27.647Z,14.70
2022-09-14T11:01:54.368Z,14.70
2022-09-14T11:04:49.150Z,14.80
2022-09-14T11:07:29.456Z,14.80
2022-09-14T11:10:24.597Z,14.90
2022-09-14T11:13:19.848Z,14.90
2022-09-14T11:15:54.110Z,15.00
2022-09-14T11:18:39.520Z,15.00
2022-09-14T11:21:30.841Z,15.00
2022-09-14T11:24:03.570Z,15.00
2022-09-14T11:26:47.783Z,14.90
2022-09-14T11:29:29.234Z,14.80
2022-09-14T11:32:21.331Z,14.70
2022-09-14T11:34:57.722Z,14.70
2022-09-14T11:37:41.460Z,14.90
2022-09-14T11:40:24.086Z,14.90
2022-09-14T11:42:58.205Z,14.90
2022-09-14T11:45:30.449Z,14.90
2022-09-14T11:48:41.777Z,14.90
2022-09-14T11:51:13.345Z,14.80
2022-09-14T11:53:42.266Z,14.80
2022-09-14T11:56:26.805Z,14.60
2022-09-14T11:59:04.004Z,14.60
2022-09-14T12:01:36.382Z,14.60
2022-09-14T12:04:12.764Z,14.60
2022-09-14T12:06:39.460Z,14.50
2022-09-14T12:09:20.871Z,14.70
2022-09-14T12:11:56.610Z,14.60
2022-09-14T12:14:30.101Z,14.60
2022-09-14T12:17:38.780Z,14.60
2022-09-14T12:20:29.374Z,14.70
2022-09-14T12:23:21.249Z,14.60
2022-09-14T12:25:53.996Z,14.30
2022-09-14T12:28:37.143Z,14.20
2022-09-14T12:31:03.993Z,14.20
2022-09-14T12:33:33.736Z,14.00
2022-09-14T12:36:07.125Z,13.90
2022-09-14T12:38:36.850Z,13.90
2022-09-14T12:41:24.022Z,13.90
2022-09-14T12:43:50.969Z,13.80
2022-09-14T12:46:20.751Z,13.80
2022-09-14T12:48:51.710Z,13.90
2022-09-14T12:51:44.431Z,13.90
2022-09-14T12:54:25.990Z,14.00
2022-09-14T12:57:03.186Z,14.00
2022-09-14T13:00:04.669Z,14.20
2022-09-14T13:03:13.797Z,14.20
2022-09-14T13:05:43.593Z,14.30
2022-09-14T13:08:12.440Z,14.40
2022-09-14T13:10:50.948Z,14.50
2022-09-14T13:13:31.411Z,14.50
2022-09-14T13:16:00.797Z,14.40
2022-09-14T13:18:30.610Z,14.50
2022-09-14T13:20:59.774Z,14.50
2022-09-14T13:23:38.800Z,14.70
2022-09-14T13:26:11.801Z,14.80
2022-09-14T13:28:41.921Z,14.70
2022-09-14T13:31:14.052Z,14.50
2022-09-14T13:33:51.265Z,14.30
2022-09-14T13:36:21.632Z,14.20
2022-09-14T13:38:48.855Z,14.30
2022-09-14T13:41:18.505Z,14.40
2022-09-14T13:43:47.304Z,14.50
2022-09-14T13:46:18.342Z,14.30
2022-09-14T13:48:47.391Z,14.30
2022-09-14T13:51:14.770Z,14.30
2022-09-14T13:53:49.889Z,14.40
2022-09-14T13:56:19.457Z,14.40
2022-09-14T13:58:48.507Z,14.40
2022-09-14T14:01:25.932Z,14.40
2022-09-14T14:03:52.657Z,14.40
2022-09-14T14:06:28.289Z,14.40
2022-09-14T14:09:00.376Z,14.30
2022-09-14T14:11:31.684Z,14.50
2022-09-14T14:14:10.527Z,14.40
2022-09-14T14:16:37.371Z,14.40
2022-09-14T14:19:04.350Z,14.30
2022-09-14T14:21:33.062Z,14.30
2022-09-14T14:24:26.546Z,14.50
2022-09-14T14:26:57.528Z,14.50
2022-09-14T14:29:26.050Z,14.60
2022-09-14T14:31:55.268Z,14.70
2022-09-14T14:34:29.415Z,14.80
2022-09-14T14:36:56.425Z,14.90
2022-09-14T14:39:24.859Z,14.90
2022-09-14T14:41:54.409Z,14.90
2022-09-14T14:44:28.082Z,14.90
2022-09-14T14:46:55.515Z,14.70
2022-09-14T14:49:23.527Z,14.70
2022-09-14T14:51:50.492Z,14.80
2022-09-14T14:54:17.924Z,14.90
2022-09-14T14:56:46.445Z,14.90
2022-09-14T14:59:19.382Z,14.90
2022-09-14T15:01:46.974Z,14.90
2022-09-14T15:04:14.210Z,14.80
2022-09-14T15:06:41.059Z,14.80
2022-09-14T15:09:15.152Z,14.80
2022-09-14T15:11:41.861Z,14.80
2022-09-14T15:14:13.961Z,14.90
2022-09-14T15:16:40.824Z,14.90
2022-09-14T15:19:07.558Z,14.90
2022-09-14T15:21:34.287Z,15.00
2022-09-14T15:24:01.263Z,15.00
2022-09-14T15:26:28.091Z,15.00
2022-09-14T15:28:54.756Z,15.00
2022-09-14T15:31:21.709Z,14.90
2022-09-14T15:33:48.347Z,14.80
2022-09-14T15:36:35.714Z,14.70
2022-09-14T15:39:02.848Z,14.80
2022-09-14T15:41:29.494Z,14.90
2022-09-14T15:43:56.102Z,14.80
2022-09-14T15:46:22.762Z,14.70
2022-09-14T15:48:49.347Z,14.70
2022-09-14T15:51:17.129Z,14.70
2022-09-14T15:53:45.535Z,14.70
2022-09-14T15:56:14.571Z,14.70
2022-09-14T15:58:45.912Z,14.70
2022-09-14T16:01:16.406Z,14.90
2022-09-14T16:03:43.525Z,14.90
2022-09-14T16:06:12.132Z,14.90
2022-09-14T16:08:40.037Z,14.90
2022-09-14T16:11:07.973Z,14.80
2022-09-14T16:13:35.597Z,14.70
2022-09-14T16:16:04.507Z,14.70
2022-09-14T16:18:31.640Z,14.70
2022-09-14T16:21:14.704Z,14.60
2022-09-14T16:23:44.071Z,14.60
2022-09-14T16:26:15.387Z,14.60
2022-09-14T16:28:43.401Z,14.60
2022-09-14T16:31:16.451Z,14.60
2022-09-14T16:33:45.900Z,14.60
2022-09-14T16:36:15.436Z,14.70
2022-09-14T16:38:42.644Z,14.70
2022-09-14T16:41:11.367Z,14.70
2022-09-14T16:43:38.391Z,14.60
2022-09-14T16:46:09.349Z,14.50
2022-09-14T16:48:39.264Z,14.60
2022-09-14T16:51:06.749Z,14.50
2022-09-14T16:53:35.602Z,14.50
2022-09-14T16:56:02.218Z,14.50
2022-09-14T16:58:29.510Z,14.50
2022-09-14T17:00:56.457Z,14.50
2022-09-14T17:03:23.507Z,14.40
2022-09-14T17:05:50.263Z,14.50
2022-09-14T17:08:16.852Z,14.50
2022-09-14T17:10:46.939Z,14.40
2022-09-14T17:13:13.720Z,14.40
2022-09-14T17:15:40.402Z,14.40
2022-09-14T17:18:07.032Z,14.40
2022-09-14T17:20:33.637Z,14.50
2022-09-14T17:23:00.356Z,14.50
2022-09-14T17:25:28.655Z,14.40
2022-09-14T17:27:55.318Z,14.50
2022-09-14T17:30:21.941Z,14.50
2022-09-14T17:32:48.568Z,14.50
2022-09-14T17:35:15.719Z,14.40
2022-09-14T17:37:42.296Z,14.40
2022-09-14T17:40:10.732Z,14.40
2022-09-14T17:42:37.360Z,14.40
2022-09-14T17:45:06.348Z,14.40
2022-09-14T17:47:35.642Z,14.20
2022-09-14T17:50:03.395Z,14.20
2022-09-14T17:52:30.922Z,14.10
2022-09-14T17:54:57.553Z,14.00
2022-09-14T17:57:24.174Z,14.00
2022-09-14T17:59:50.942Z,14.00
2022-09-14T18:02:17.779Z,14.00
2022-09-14T18:04:48.518Z,14.00
2022-09-14T18:07:16.558Z,14.00
2022-09-14T18:09:43.334Z,14.00
2022-09-14T18:12:10.257Z,13.90
2022-09-14T18:14:37.040Z,13.90
2022-09-14T18:17:03.813Z,14.00
2022-09-14T18:19:30.425Z,13.90
2022-09-14T18:21:57.028Z,13.90
2022-09-14T18:24:23.930Z,13.90
2022-09-14T18:26:50.597Z,13.80
2022-09-14T18:29:20.854Z,13.80
2022-09-14T18:31:47.545Z,13.90
2022-09-14T18:34:14.194Z,13.80
2022-09-14T18:36:40.773Z,13.80
2022-09-14T18:39:07.417Z,13.80
2022-09-14T18:41:34.110Z,13.70
2022-09-14T18:44:01.649Z,13.70
2022-09-14T18:46:28.927Z,13.70
2022-09-14T18:48:57.758Z,13.70
2022-09-14T18:51:24.807Z,13.60
2022-09-14T18:54:03.976Z,13.70
2022-09-14T18:56:33.094Z,13.60
2022-09-14T18:59:01.295Z,13.50
2022-09-14T19:01:28.501Z,13.50
2022-09-14T19:03:58.824Z,13.50
2022-09-14T19:06:25.783Z,13.40
2022-09-14T19:08:52.743Z,13.40
2022-09-14T19:11:24.619Z,13.50
2022-09-14T19:14:10.169Z,13.50
2022-09-14T19:16:39.067Z,13.60
2022-09-14T19:19:07.326Z,13.50
2022-09-14T19:21:34.213Z,13.50
2022-09-14T19:24:03.866Z,13.60
2022-09-14T19:26:45.295Z,13.50
2022-09-14T19:29:14.719Z,13.40
2022-09-14T19:31:41.448Z,13.50
2022-09-14T19:34:08.159Z,13.50
2022-09-14T19:36:34.994Z,13.50
2022-09-14T19:39:03.542Z,13.40
2022-09-14T19:41:32.767Z,13.40
2022-09-14T19:44:00.319Z,13.40
2022-09-14T19:46:27.330Z,13.40
2022-09-14T19:48:54.666Z,13.40
2022-09-14T19:51:27.573Z,13.30
2022-09-14T19:53:59.375Z,13.20
2022-09-14T19:56:30.312Z,13.30
2022-09-14T19:58:59.886Z,13.30
2022-09-14T20:01:28.417Z,13.30
2022-09-14T20:03:55.214Z,13.30
2022-09-14T20:06:33.858Z,13.30
2022-09-14T20:09:12.281Z,13.20
2022-09-14T20:11:40.552Z,13.10
2022-09-14T20:14:10.020Z,13.00
2022-09-14T20:16:39.734Z,13.00
2022-09-14T20:19:12.446Z,13.00
2022-09-14T20:21:41.203Z,13.10
2022-09-14T20:24:16.284Z,13.00
2022-09-14T20:26:48.721Z,12.90
2022-09-14T20:29:16.880Z,12.90
2022-09-14T20:31:44.480Z,13.00
2022-09-14T20:34:12.036Z,12.90
2022-09-14T20:36:38.738Z,12.80
2022-09-14T20:39:06.005Z,12.90
2022-09-14T20:41:34.706Z,12.80
2022-09-14T20:44:01.950Z,12.70
2022-09-14T20:46:31.753Z,12.60
2022-09-14T20:48:58.625Z,12.50
2022-09-14T20:51:25.681Z,12.50
2022-09-14T20:53:52.592Z,12.60
2022-09-14T20:56:22.354Z,12.70
2022-09-14T20:58:52.478Z,12.60
2022-09-14T21:01:21.245Z,12.60
2022-09-14T21:03:49.232Z,12.60
2022-09-14T21:06:19.578Z,12.50
2022-09-14T21:08:47.119Z,12.50
2022-09-14T21:11:19.820Z,12.40
2022-09-14T21:13:47.339Z,12.40
2022-09-14T21:16:22.182Z,12.50
2022-09-14T21:18:56.190Z,12.60
2022-09-14T21:21:23.543Z,12.60
2022-09-14T21:23:50.857Z,12.70
2022-09-14T21:26:19.733Z,12.70
2022-09-14T21:28:47.010Z,12.60
2022-09-14T21:31:21.241Z,12.60
2022-09-14T21:33:51.105Z,12.70
2022-09-14T21:36:21.350Z,12.70
2022-09-14T21:38:54.404Z,12.70
2022-09-14T21:41:23.195Z,12.70
2022-09-14T21:43:50.338Z,12.60
2022-09-14T21:46:18.353Z,12.50
2022-09-14T21:48:45.249Z,12.50
2022-09-14T21:51:18.132Z,12.40
2022-09-14T21:53:46.923Z,12.50
2022-09-14T21:56:14.271Z,12.50
2022-09-14T21:58:41.281Z,12.40
2022-09-14T22:01:08.660Z,12.30
2022-09-14T22:03:36.588Z,12.20
2022-09-14T22:06:06.388Z,12.20
2022-09-14T22:08:35.132Z,12.20
2022-09-14T22:11:10.617Z,12.20
2022-09-14T22:13:38.356Z,12.10
2022-09-14T22:16:10.288Z,12.10
2022-09-14T22:18:39.591Z,12.20
2022-09-14T22:21:07.493Z,12.10
2022-09-14T22:23:35.397Z,12.10
2022-09-14T22:26:10.655Z,12.10
2022-09-14T22:28:41.774Z,12.10
2022-09-14T22:31:09.225Z,12.00
2022-09-14T22:33:36.288Z,12.00
2022-09-14T22:36:04.466Z,12.00
2022-09-14T22:38:34.103Z,12.10
2022-09-14T22:41:04.250Z,12.00
2022-09-14T22:43:33.672Z,11.90
2022-09-14T22:46:01.619Z,11.90
2022-09-14T22:48:28.534Z,11.90
2022-09-14T22:50:57.132Z,11.90
2022-09-14T22:53:25.223Z,11.90
2022-09-14T22:55:52.529Z,12.00
2022-09-14T22:58:22.504Z,12.00
2022-09-14T23:00:49.622Z,12.00
2022-09-14T23:03:18.117Z,12.00
2022-09-14T23:05:53.215Z,12.10
2022-09-14T23:08:20.219Z,12.10
2022-09-14T23:10:48.604Z,12.00
2022-09-14T23:13:16.176Z,12.20
2022-09-14T23:15:42.964Z,12.30
2022-09-14T23:18:10.518Z,12.20
2022-09-14T23:20:38.667Z,12.30
2022-09-14T23:23:05.751Z,12.20
2022-09-14T23:25:35.414Z,12.30
2022-09-14T23:28:03.376Z,12.30
2022-09-14T23:30:31.033Z,12.30
2022-09-14T23:32:58.579Z,12.40
2022-09-14T23:35:26.919Z,12.30
2022-09-14T23:37:54.289Z,12.30
2022-09-14T23:40:21.376Z,12.30
2022-09-14T23:42:48.115Z,12.40
2022-09-14T23:45:15.002Z,12.30
2022-09-14T23:47:41.916Z,12.30
2022-09-14T23:50:09.226Z,12.30
2022-09-14T23:52:36.771Z,12.40
2022-09-14T23:55:04.109Z,12.50
2022-09-14T23:57:30.794Z,12.60
2022-09-14T23:59:58.538Z,12.60
